Time;durP1;ratioP1;P1;durP2;ratioP2;P2;SDS_P1;SDS_P2;PMS_P1;PMS_P2;Temp;Humidity;BMP_temperature;BMP_pressure;BME280_temperature;BME280_humidity;BME280_pressure;Samples;Min_cycle;Max_cycle;Signal;HPM_P1;HPM_P2
2021/07/13 00:00:15;;;;;;;14.73;9.03;;;;;;;18.53;87.41;100120.06;1725448;81;21067;-76
2021/07/13 00:02:42;;;;;;;11.90;8.35;;;;;;;18.49;88.09;100115.05;1714657;83;21787;-76
2021/07/13 00:05:17;;;;;;;11.60;7.90;;;;;;;18.44;89.28;100118.04;1717339;83;21090;-76
2021/07/13 00:07:46;;;;;;;10.95;8.38;;;;;;;18.40;90.10;100123.20;1717178;83;21106;-77
2021/07/13 00:10:14;;;;;;;11.95;8.08;;;;;;;18.36;90.47;100127.07;1717307;83;21125;-76
2021/07/13 00:12:41;;;;;;;9.98;7.78;;;;;;;18.35;90.54;100126.68;1744278;81;21588;-80
2021/07/13 00:15:18;;;;;;;14.00;8.65;;;;;;;18.29;91.03;100131.09;1753357;81;21056;-74
2021/07/13 00:17:48;;;;;;;13.55;8.23;;;;;;;18.24;90.73;100132.29;1753254;81;20998;-74
2021/07/13 00:20:15;;;;;;;15.50;9.08;;;;;;;18.17;91.14;100125.64;1748338;81;21089;-73
2021/07/13 00:22:43;;;;;;;11.48;8.43;;;;;;;18.13;91.88;100128.17;1747446;82;21596;-75
2021/07/13 00:25:12;;;;;;;15.72;9.68;;;;;;;18.07;92.13;100128.58;1747416;82;21068;-74
2021/07/13 00:27:42;;;;;;;11.40;8.33;;;;;;;18.04;92.76;100138.13;1747399;82;21540;-74
2021/07/13 00:30:11;;;;;;;14.30;7.47;;;;;;;17.99;92.93;100132.23;1747548;82;21552;-74
2021/07/13 00:32:39;;;;;;;14.68;7.97;;;;;;;17.94;93.04;100137.88;1747442;82;21535;-73
2021/07/13 00:35:09;;;;;;;12.58;8.43;;;;;;;17.92;93.16;100138.94;1747569;82;21175;-73
2021/07/13 00:37:38;;;;;;;8.83;7.22;;;;;;;17.87;90.69;100142.39;1747419;82;21037;-72
2021/07/13 00:40:07;;;;;;;12.60;8.95;;;;;;;17.87;92.09;100141.06;1747709;81;21081;-73
2021/07/13 00:42:34;;;;;;;7.95;5.92;;;;;;;17.83;91.50;100139.10;1747555;82;21026;-76
2021/07/13 00:45:01;;;;;;;10.25;8.53;;;;;;;17.80;91.18;100130.78;1748113;82;21084;-73
2021/07/13 00:47:28;;;;;;;11.10;8.65;;;;;;;17.81;92.04;100128.54;1747685;82;21187;-73
2021/07/13 00:49:55;;;;;;;10.82;8.23;;;;;;;17.79;92.31;100130.41;1747919;81;21057;-73
2021/07/13 00:52:22;;;;;;;13.53;8.88;;;;;;;17.78;92.66;100125.18;1743013;81;21010;-73
2021/07/13 00:54:49;;;;;;;17.75;9.40;;;;;;;17.75;93.23;100128.91;1747758;82;21100;-72
2021/07/13 00:57:18;;;;;;;14.30;8.55;;;;;;;17.69;93.66;100134.66;1746179;81;21069;-72
2021/07/13 00:59:46;;;;;;;13.00;9.28;;;;;;;17.63;94.02;100143.05;1747646;81;21519;-72
2021/07/13 01:02:15;;;;;;;10.00;6.58;;;;;;;17.57;93.56;100139.45;1747316;82;21053;-74
2021/07/13 01:04:48;;;;;;;14.90;8.38;;;;;;;17.55;93.42;100140.03;1747648;81;21076;-73
2021/07/13 01:07:39;;;;;;;12.53;8.33;;;;;;;17.53;93.55;100140.59;1746838;82;21085;-73
2021/07/13 01:10:57;;;;;;;7.12;5.50;;;;;;;17.51;92.82;100138.55;1747607;82;21101;-73
2021/07/13 01:13:44;;;;;;;10.85;6.70;;;;;;;17.50;92.74;100142.98;1747588;82;21134;-73
2021/07/13 01:16:20;;;;;;;12.82;8.75;;;;;;;17.49;92.74;100139.97;1747549;82;21536;-74
2021/07/13 01:19:02;;;;;;;13.53;8.90;;;;;;;17.49;92.73;100136.45;1742401;80;21021;-74
2021/07/13 01:21:39;;;;;;;10.08;7.47;;;;;;;17.48;93.13;100141.39;1747294;81;21076;-75
2021/07/13 01:24:43;;;;;;;17.30;9.25;;;;;;;17.47;93.49;100145.86;1747626;81;21063;-75
2021/07/13 01:27:18;;;;;;;17.07;9.53;;;;;;;17.46;93.57;100143.30;1747674;82;21125;-75
2021/07/13 01:29:45;;;;;;;15.70;9.28;;;;;;;17.39;93.92;100133.06;1747203;82;20985;-74
2021/07/13 01:32:18;;;;;;;14.68;8.85;;;;;;;17.36;94.66;100130.58;1747492;82;20997;-75
2021/07/13 01:34:52;;;;;;;13.25;7.58;;;;;;;17.33;95.05;100133.45;1747925;82;21056;-75
2021/07/13 01:37:18;;;;;;;14.80;7.85;;;;;;;17.31;94.69;100134.03;1747181;82;21623;-75
2021/07/13 01:39:44;;;;;;;13.95;8.98;;;;;;;17.30;94.91;100127.47;1747849;82;21513;-75
2021/07/13 01:42:14;;;;;;;10.15;6.28;;;;;;;17.29;95.01;100129.28;1748057;82;21032;-76
2021/07/13 01:44:41;;;;;;;10.93;8.50;;;;;;;17.27;93.82;100125.02;1747949;82;21050;-77
2021/07/13 01:47:09;;;;;;;11.88;9.10;;;;;;;17.28;94.65;100130.25;1747574;82;21052;-77
2021/07/13 01:49:35;;;;;;;15.15;8.90;;;;;;;17.28;94.45;100127.59;1748251;81;21021;-73
2021/07/13 01:52:03;;;;;;;15.48;9.33;;;;;;;17.25;94.90;100133.09;1747529;81;21173;-75
2021/07/13 01:54:33;;;;;;;11.97;8.48;;;;;;;17.21;95.15;100128.94;1747552;81;22104;-74
2021/07/13 01:57:02;;;;;;;12.15;8.60;;;;;;;17.16;95.21;100139.00;1747950;81;21031;-75
2021/07/13 01:59:31;;;;;;;15.93;8.45;;;;;;;17.12;95.59;100138.84;1698340;83;21061;-76
2021/07/13 02:01:59;;;;;;;10.93;7.17;;;;;;;17.10;95.96;100139.41;1709926;83;21065;-74
2021/07/13 02:04:32;;;;;;;19.32;8.00;;;;;;;17.10;95.91;100135.42;1709833;83;21190;-75
2021/07/13 02:07:01;;;;;;;11.88;8.33;;;;;;;17.09;95.54;100138.56;1709777;83;21061;-75
2021/07/13 02:09:27;;;;;;;9.15;5.97;;;;;;;17.08;93.85;100142.65;1710248;83;21061;-76
2021/07/13 02:11:56;;;;;;;18.05;9.70;;;;;;;17.08;94.63;100139.50;1709886;83;21030;-77
2021/07/13 02:14:25;;;;;;;13.28;8.38;;;;;;;17.04;93.66;100145.12;1710092;83;21050;-77
2021/07/13 02:16:52;;;;;;;12.78;9.00;;;;;;;17.04;94.50;100140.64;1710012;83;21593;-76
2021/07/13 02:19:21;;;;;;;12.88;8.93;;;;;;;17.06;95.15;100140.55;1709717;83;21113;-77
2021/07/13 02:21:49;;;;;;;15.08;8.58;;;;;;;17.05;95.63;100144.19;1714346;83;21130;-78
2021/07/13 02:24:18;;;;;;;12.10;8.48;;;;;;;17.05;96.12;100149.02;1671635;85;21050;-77
2021/07/13 02:26:56;;;;;;;11.60;8.05;;;;;;;17.06;96.08;100155.19;1671398;84;21341;-76
2021/07/13 02:29:31;;;;;;;7.12;5.25;;;;;;;17.07;94.22;100152.89;1671539;84;21098;-76
2021/07/13 02:32:18;;;;;;;13.35;8.53;;;;;;;17.09;94.82;100161.64;1671458;84;21121;-76
2021/07/13 02:34:46;;;;;;;13.15;7.92;;;;;;;17.12;93.85;100164.12;1671721;84;21059;-74
2021/07/13 02:37:13;;;;;;;13.58;8.65;;;;;;;17.13;92.27;100160.50;1671597;85;21079;-74
2021/07/13 02:39:40;;;;;;;11.60;8.85;;;;;;;17.16;93.98;100153.64;1671544;85;21126;-74
2021/07/13 02:42:07;;;;;;;10.93;5.22;;;;;;;17.22;94.71;100154.59;1671863;85;21166;-73
2021/07/13 02:44:36;;;;;;;17.90;9.03;;;;;;;17.24;93.89;100152.69;1671791;85;21040;-74
2021/07/13 02:47:13;;;;;;;14.87;9.58;;;;;;;17.29;94.22;100158.55;1671512;85;21558;-73
2021/07/13 02:49:48;;;;;;;12.07;8.28;;;;;;;17.34;94.04;100166.24;1671656;85;21597;-73
2021/07/13 02:52:30;;;;;;;11.45;8.95;;;;;;;17.38;94.07;100173.94;1671385;85;21351;-75
2021/07/13 02:55:05;;;;;;;11.45;8.20;;;;;;;17.45;94.42;100170.88;1671580;85;21793;-74
2021/07/13 02:57:32;;;;;;;16.85;8.73;;;;;;;17.49;93.15;100160.42;1671525;84;21502;-74
2021/07/13 02:59:59;;;;;;;13.50;9.30;;;;;;;17.58;93.99;100161.15;1683655;85;21089;-74
2021/07/13 03:02:26;;;;;;;15.10;8.98;;;;;;;17.63;92.86;100159.03;1659133;85;21059;-74
2021/07/13 03:04:53;;;;;;;13.88;9.20;;;;;;;17.73;93.69;100165.44;1663857;86;21072;-74
2021/07/13 03:07:20;;;;;;;15.15;9.30;;;;;;;17.78;94.29;100163.34;1688235;85;21495;-75
2021/07/13 03:09:47;;;;;;;13.48;8.33;;;;;;;17.85;93.87;100165.62;1688482;85;21633;-75
2021/07/13 03:12:15;;;;;;;11.35;9.35;;;;;;;17.94;93.39;100169.84;1688581;85;21051;-75
2021/07/13 03:14:43;;;;;;;10.40;8.40;;;;;;;18.06;93.52;100176.64;1689237;85;21055;-76
2021/07/13 03:17:16;;;;;;;11.85;6.72;;;;;;;18.17;92.64;100172.29;1688874;84;21107;-76
2021/07/13 03:19:44;;;;;;;13.13;8.83;;;;;;;18.32;92.97;100168.22;1688569;84;21210;-76
2021/07/13 03:22:22;;;;;;;16.25;9.03;;;;;;;18.45;90.92;100177.09;1690666;84;21123;-76
2021/07/13 03:24:49;;;;;;;11.10;8.78;;;;;;;18.55;88.95;100171.48;1691122;84;21120;-74
2021/07/13 03:27:21;;;;;;;11.40;9.00;;;;;;;18.70;89.96;100170.03;1661880;84;21089;-73
2021/07/13 03:29:50;;;;;;;13.95;8.23;;;;;;;18.82;88.49;100162.06;1719549;83;21116;-77
2021/07/13 03:32:18;;;;;;;18.52;10.60;;;;;;;19.01;86.94;100164.27;1695062;84;21247;-75
2021/07/13 03:34:45;;;;;;;15.50;9.35;;;;;;;19.19;87.84;100154.57;1698679;84;21554;-73
2021/07/13 03:37:13;;;;;;;14.98;9.40;;;;;;;19.36;85.67;100155.51;1711623;83;21071;-76
2021/07/13 03:39:40;;;;;;;14.65;9.65;;;;;;;19.59;86.22;100158.30;1699294;84;21053;-74
2021/07/13 03:42:07;;;;;;;10.95;8.60;;;;;;;19.78;86.18;100151.98;1692267;84;21711;-73
2021/07/13 03:44:34;;;;;;;11.40;8.90;;;;;;;20.00;82.02;100149.04;1696202;84;21180;-78
2021/07/13 03:47:01;;;;;;;15.48;9.95;;;;;;;20.19;83.91;100142.64;1717801;83;21108;-74
2021/07/13 03:49:28;;;;;;;11.78;8.55;;;;;;;20.47;81.72;100145.84;1714821;83;21069;-73
2021/07/13 03:51:55;;;;;;;14.58;9.10;;;;;;;20.73;81.89;100147.37;1664776;84;21122;-73
2021/07/13 03:54:22;;;;;;;14.40;9.78;;;;;;;21.03;81.29;100150.41;1701806;84;21077;-75
2021/07/13 03:56:51;;;;;;;14.85;9.70;;;;;;;21.28;80.90;100142.55;1701501;84;21603;-74
2021/07/13 03:59:18;;;;;;;14.85;9.55;;;;;;;21.54;79.56;100143.98;1701561;84;21057;-73
2021/07/13 04:01:46;;;;;;;13.05;9.30;;;;;;;21.78;78.24;100144.25;1700136;84;21118;-74
2021/07/13 04:04:13;;;;;;;13.45;10.40;;;;;;;22.00;77.51;100144.15;1704386;83;21065;-74
2021/07/13 04:06:40;;;;;;;15.72;10.08;;;;;;;22.23;75.86;100144.06;1720076;83;21117;-74
2021/07/13 04:09:09;;;;;;;16.57;10.03;;;;;;;22.43;75.23;100154.89;1715634;83;21129;-73
2021/07/13 04:11:35;;;;;;;12.68;9.45;;;;;;;22.65;74.58;100157.92;1719284;83;21611;-75
2021/07/13 04:14:05;;;;;;;12.88;9.45;;;;;;;22.83;73.09;100150.44;1716666;83;21289;-75
2021/07/13 04:16:32;;;;;;;11.45;9.43;;;;;;;23.05;72.26;100149.90;1704886;84;21014;-74
2021/07/13 04:18:59;;;;;;;12.63;9.60;;;;;;;23.29;71.57;100147.37;1706507;83;21105;-75
2021/07/13 04:21:26;;;;;;;12.98;9.88;;;;;;;23.56;70.39;100150.23;1715656;83;21192;-73
2021/07/13 04:23:54;;;;;;;18.10;9.95;;;;;;;23.82;69.20;100139.80;1709736;83;21070;-75
2021/07/13 04:26:21;;;;;;;16.82;11.73;;;;;;;24.12;67.69;100140.62;1707892;83;21061;-74
2021/07/13 04:28:48;;;;;;;22.25;9.80;;;;;;;24.37;65.18;100135.63;1707888;83;21612;-74
2021/07/13 04:31:17;;;;;;;14.70;9.25;;;;;;;24.59;65.79;100137.98;1709896;83;21117;-75
2021/07/13 04:33:43;;;;;;;17.92;9.40;;;;;;;24.84;64.84;100136.47;1710046;83;21136;-74
2021/07/13 04:36:10;;;;;;;17.57;8.40;;;;;;;25.12;63.73;100132.42;1708646;83;21069;-75
2021/07/13 04:38:38;;;;;;;27.07;7.75;;;;;;;25.33;61.72;100126.31;1709457;83;21553;-74
2021/07/13 04:41:05;;;;;;;18.77;8.43;;;;;;;25.53;59.81;100131.55;1710305;83;21324;-75
2021/07/13 04:43:32;;;;;;;16.25;5.90;;;;;;;25.69;58.44;100131.70;1709979;83;21125;-75
2021/07/13 04:46:00;;;;;;;19.75;5.75;;;;;;;25.81;54.61;100131.47;1710176;83;21746;-74
2021/07/13 04:48:27;;;;;;;14.25;5.45;;;;;;;25.90;53.99;100130.57;1709817;83;21041;-74
2021/07/13 04:50:56;;;;;;;10.32;5.55;;;;;;;26.01;52.92;100130.33;1710108;83;21625;-74
2021/07/13 04:53:23;;;;;;;9.83;5.05;;;;;;;26.19;53.12;100134.86;1709816;83;21065;-74
2021/07/13 04:55:50;;;;;;;17.30;5.47;;;;;;;26.35;53.19;100137.66;1709933;83;21058;-73
2021/07/13 04:58:17;;;;;;;9.95;4.90;;;;;;;26.53;52.19;100134.41;1707673;83;21492;-75
2021/07/13 05:00:44;;;;;;;8.40;5.12;;;;;;;26.69;50.93;100133.68;1708353;84;21566;-73
2021/07/13 05:03:11;;;;;;;6.28;4.60;;;;;;;26.83;49.92;100136.79;1705110;83;21110;-74
2021/07/13 05:05:38;;;;;;;10.78;5.30;;;;;;;26.99;49.57;100141.75;1705976;83;21496;-76
2021/07/13 05:08:05;;;;;;;11.45;5.40;;;;;;;27.11;49.98;100138.75;1703495;83;21081;-75
2021/07/13 05:10:32;;;;;;;8.65;5.35;;;;;;;27.27;50.02;100142.05;1687347;84;22118;-75
2021/07/13 05:13:01;;;;;;;11.18;5.62;;;;;;;27.44;48.72;100142.92;1689815;84;21077;-74
2021/07/13 05:15:28;;;;;;;10.05;6.00;;;;;;;27.56;48.60;100142.94;1688809;84;21085;-72
2021/07/13 05:17:56;;;;;;;8.13;5.25;;;;;;;27.69;48.92;100143.30;1691262;84;21057;-73
2021/07/13 05:20:25;;;;;;;8.25;5.72;;;;;;;27.87;48.11;100138.28;1708348;83;21251;-74
2021/07/13 05:22:59;;;;;;;10.25;5.67;;;;;;;27.97;47.66;100132.18;1709385;83;21100;-73
2021/07/13 05:25:24;;;;;;;9.03;5.83;;;;;;;28.00;47.25;100138.11;1694744;84;21084;-75
2021/07/13 05:27:52;;;;;;;7.62;5.42;;;;;;;28.13;47.13;100134.88;1699453;84;21065;-73
2021/07/13 05:30:23;;;;;;;8.58;5.80;;;;;;;28.19;46.90;100131.49;1694110;84;21112;-74
2021/07/13 05:35:20;;;;;;;10.90;6.08;;;;;;;28.37;47.03;100127.75;1780321;78;22720;-74
2021/07/13 05:37:47;;;;;;;9.35;6.03;;;;;;;28.53;46.68;100139.94;1756278;81;21053;-75
2021/07/13 05:40:14;;;;;;;11.75;6.20;;;;;;;28.79;45.90;100127.48;1758074;81;21774;-76
2021/07/13 05:42:43;;;;;;;20.60;7.15;;;;;;;28.93;46.03;100129.97;1716177;81;21528;-75
2021/07/13 05:45:10;;;;;;;17.07;7.45;;;;;;;29.06;45.60;100131.61;1719609;83;21064;-76
2021/07/13 05:47:38;;;;;;;14.18;7.45;;;;;;;29.07;45.76;100133.31;1723762;81;21596;-74
2021/07/13 05:50:07;;;;;;;12.78;6.30;;;;;;;29.14;45.99;100129.91;1685505;83;21545;-75
2021/07/13 05:52:36;;;;;;;19.95;8.10;;;;;;;29.17;45.61;100130.41;1721815;83;21060;-75
2021/07/13 05:55:04;;;;;;;43.63;10.75;;;;;;;29.27;46.29;100132.89;1721932;82;21017;-74
2021/07/13 05:57:31;;;;;;;32.98;9.58;;;;;;;29.33;45.92;100132.16;1720381;83;20993;-73
2021/07/13 05:59:58;;;;;;;45.60;10.72;;;;;;;29.34;46.06;100125.72;1683547;83;21072;-75
2021/07/13 06:02:25;;;;;;;31.80;9.33;;;;;;;29.30;46.63;100133.88;1680733;85;21111;-74
2021/07/13 06:04:52;;;;;;;36.65;9.65;;;;;;;29.29;46.81;100130.84;1680222;85;21046;-74
2021/07/13 06:07:19;;;;;;;38.45;11.88;;;;;;;29.44;47.15;100123.61;1679616;85;21069;-75
2021/07/13 06:09:46;;;;;;;23.83;8.40;;;;;;;29.68;46.61;100119.93;1680769;84;21071;-74
2021/07/13 06:12:13;;;;;;;27.60;10.10;;;;;;;29.95;44.40;100125.80;1689062;84;21567;-75
2021/07/13 06:14:41;;;;;;;40.08;11.12;;;;;;;30.15;45.12;100126.14;1690981;83;21624;-75
2021/07/13 06:17:08;;;;;;;38.83;10.18;;;;;;;30.02;45.09;100124.56;1691401;84;21095;-75
2021/07/13 06:19:37;;;;;;;29.70;9.93;;;;;;;29.81;45.76;100126.09;1690731;84;21341;-75
2021/07/13 06:22:05;;;;;;;29.07;10.48;;;;;;;29.87;45.49;100124.01;1683991;84;21711;-74
2021/07/13 06:24:33;;;;;;;31.65;10.23;;;;;;;29.92;44.97;100122.63;1690463;84;21148;-75
2021/07/13 06:27:00;;;;;;;25.02;9.58;;;;;;;29.86;45.86;100122.34;1672621;83;21035;-75
2021/07/13 06:29:27;;;;;;;29.23;9.95;;;;;;;29.95;45.64;100123.61;1671231;83;21176;-71
2021/07/13 06:31:54;;;;;;;20.27;7.70;;;;;;;29.99;45.30;100118.98;1691544;83;21056;-73
2021/07/13 06:34:23;;;;;;;23.70;7.95;;;;;;;30.26;43.97;100117.58;1654233;86;21110;-76
2021/07/13 06:36:49;;;;;;;18.98;7.72;;;;;;;30.44;43.30;100119.11;1669429;85;21104;-78
2021/07/13 06:39:16;;;;;;;30.82;8.85;;;;;;;30.53;43.71;100115.27;1678006;85;21101;-74
2021/07/13 06:41:43;;;;;;;24.98;8.30;;;;;;;30.76;43.48;100110.22;1666056;84;21238;-74
2021/07/13 06:44:10;;;;;;;30.40;8.60;;;;;;;30.97;42.79;100111.70;1669252;84;21089;-74
2021/07/13 06:46:39;;;;;;;30.12;9.10;;;;;;;31.56;42.35;100113.42;1677766;85;21146;-76
2021/07/13 06:49:09;;;;;;;17.52;7.35;;;;;;;31.56;42.35;100113.42;1677798;85;21073;-76
2021/07/13 06:51:35;;;;;;;16.23;7.25;;;;;;;32.01;40.04;100113.25;1703852;83;21052;-78
2021/07/13 06:54:03;;;;;;;16.12;6.37;;;;;;;32.01;40.04;100113.25;1712347;83;21126;-74
2021/07/13 06:56:30;;;;;;;15.13;6.35;;;;;;;32.26;38.11;100109.03;1712426;83;21552;-75
2021/07/13 06:58:57;;;;;;;17.75;7.33;;;;;;;32.42;37.45;100107.88;1711615;83;21069;-75
2021/07/13 07:01:25;;;;;;;17.50;7.35;;;;;;;32.49;37.73;100113.38;1712648;82;21026;-77
2021/07/13 07:03:52;;;;;;;14.53;6.62;;;;;;;32.50;37.53;100109.59;1710467;82;21045;-81
2021/07/13 07:06:19;;;;;;;30.08;7.75;;;;;;;32.49;37.90;100103.84;1704712;84;21527;-78
2021/07/13 07:08:45;;;;;;;16.02;6.95;;;;;;;32.52;37.78;100103.46;1712868;83;20972;-77
2021/07/13 07:11:12;;;;;;;11.33;7.00;;;;;;;32.43;37.71;100092.37;1713138;83;21061;-79
2021/07/13 07:13:41;;;;;;;15.03;6.95;;;;;;;32.45;38.30;100094.37;1712717;82;21608;-82
2021/07/13 07:16:09;;;;;;;24.82;7.90;;;;;;;32.56;38.57;100089.76;1709579;83;21500;-79
2021/07/13 07:18:38;;;;;;;9.95;7.53;;;;;;;32.79;38.25;100098.47;1712832;82;21038;-79
2021/07/13 07:21:04;;;;;;;13.83;8.38;;;;;;;32.86;37.86;100093.05;1712756;83;21110;-80
2021/07/13 07:23:31;;;;;;;14.18;7.75;;;;;;;32.68;37.89;100101.77;1711943;83;21620;-79
2021/07/13 07:25:58;;;;;;;12.80;7.03;;;;;;;32.53;38.34;100094.23;1707416;83;21018;-78
2021/07/13 07:28:25;;;;;;;9.13;6.25;;;;;;;32.73;37.58;100093.81;1712721;83;21029;-79
2021/07/13 07:30:52;;;;;;;11.12;6.37;;;;;;;33.04;37.86;100093.86;1711254;83;21979;-79
2021/07/13 07:33:19;;;;;;;23.02;6.60;;;;;;;33.44;36.62;100085.26;1712383;83;21078;-79
2021/07/13 07:35:46;;;;;;;14.47;6.55;;;;;;;33.82;35.73;100091.53;1724280;82;21048;-78
2021/07/13 07:38:12;;;;;;;8.90;5.65;;;;;;;34.00;35.06;100089.52;1725623;83;21077;-78
2021/07/13 07:40:41;;;;;;;12.33;5.72;;;;;;;34.00;34.89;100081.31;1724661;82;21081;-78
2021/07/13 07:43:08;;;;;;;12.65;5.75;;;;;;;34.12;34.49;100086.17;1725294;83;21462;-78
2021/07/13 07:45:35;;;;;;;9.33;5.33;;;;;;;34.06;33.98;100088.67;1725512;83;21053;-78
2021/07/13 07:48:02;;;;;;;11.30;5.28;;;;;;;33.95;33.84;100085.22;1725751;83;21041;-78
2021/07/13 07:50:29;;;;;;;13.58;6.05;;;;;;;34.13;34.42;100085.14;1725265;83;21101;-78
2021/07/13 07:52:57;;;;;;;9.63;4.83;;;;;;;34.36;34.15;100092.34;1725863;83;21045;-79
2021/07/13 07:55:26;;;;;;;12.80;5.75;;;;;;;34.45;33.49;100087.50;1725400;83;21576;-80
2021/07/13 07:57:53;;;;;;;5.62;4.60;;;;;;;34.41;33.73;100084.87;1725722;82;21068;-78
2021/07/13 08:00:20;;;;;;;8.38;5.40;;;;;;;34.42;33.57;100090.13;1725236;83;21081;-80
2021/07/13 08:02:49;;;;;;;12.23;5.28;;;;;;;34.68;34.11;100089.23;1721407;83;21085;-79
2021/07/13 08:05:16;;;;;;;10.70;5.12;;;;;;;35.12;32.16;100077.19;1725378;83;21045;-80
2021/07/13 08:07:45;;;;;;;7.67;5.20;;;;;;;35.45;31.41;100073.39;1719584;83;21616;-79
2021/07/13 08:10:14;;;;;;;8.58;5.03;;;;;;;35.68;31.16;100075.06;1725506;83;21058;-79
2021/07/13 08:12:44;;;;;;;14.38;6.08;;;;;;;35.66;30.78;100081.29;1676659;81;34987;-80
2021/07/13 08:15:12;;;;;;;11.33;5.62;;;;;;;35.06;32.00;100082.13;1629087;88;21351;-79
2021/07/13 08:17:41;;;;;;;9.23;5.00;;;;;;;34.63;33.22;100086.85;1629938;88;21065;-78
2021/07/13 08:20:10;;;;;;;11.43;5.70;;;;;;;34.36;32.47;100082.78;1630016;88;21574;-79
2021/07/13 08:22:45;;;;;;;11.48;5.60;;;;;;;34.37;33.33;100083.61;1630388;88;21085;-80
2021/07/13 08:25:11;;;;;;;11.60;5.33;;;;;;;34.41;32.99;100078.03;1629933;88;21078;-79
2021/07/13 08:27:38;;;;;;;11.40;5.53;;;;;;;34.35;33.14;100078.38;1609386;88;21541;-78
2021/07/13 08:30:08;;;;;;;11.50;5.08;;;;;;;34.36;33.47;100080.05;1624839;88;21149;-78
2021/07/13 08:32:35;;;;;;;9.48;4.87;;;;;;;34.57;32.69;100084.94;1630645;87;22007;-80
2021/07/13 08:35:02;;;;;;;9.38;4.90;;;;;;;34.61;33.09;100080.22;1629967;88;21121;-80
2021/07/13 08:37:32;;;;;;;15.03;4.92;;;;;;;34.76;32.71;100081.31;1630396;88;21129;-79
2021/07/13 08:39:59;;;;;;;14.18;5.12;;;;;;;34.94;32.70;100075.67;1629798;88;21586;-79
2021/07/13 08:42:27;;;;;;;10.82;5.35;;;;;;;35.04;32.49;100073.29;1630202;88;21068;-78
2021/07/13 08:44:57;;;;;;;12.20;4.78;;;;;;;35.01;32.91;100073.73;1630074;88;21155;-78
2021/07/13 08:47:23;;;;;;;14.70;5.28;;;;;;;35.24;32.92;100079.52;1630166;88;21403;-78
2021/07/13 08:49:50;;;;;;;16.15;4.53;;;;;;;35.70;31.68;100081.13;1630212;88;21062;-78
2021/07/13 08:52:17;;;;;;;19.23;5.72;;;;;;;35.69;30.18;100084.94;1630319;88;21129;-80
2021/07/13 08:54:45;;;;;;;14.98;4.78;;;;;;;35.51;31.35;100096.62;1620835;88;21155;-79
2021/07/13 08:57:12;;;;;;;10.38;5.00;;;;;;;35.23;32.32;100090.17;1623559;87;21153;-78
2021/07/13 08:59:39;;;;;;;12.35;5.30;;;;;;;35.07;32.86;100083.81;1627531;88;21118;-78
2021/07/13 09:02:06;;;;;;;11.63;5.20;;;;;;;35.17;32.86;100088.30;1625413;88;21022;-78
2021/07/13 09:04:35;;;;;;;9.00;4.87;;;;;;;35.54;32.38;100083.55;1630158;88;21159;-82
2021/07/13 09:07:06;;;;;;;8.10;4.42;;;;;;;35.55;32.64;100088.81;1625300;88;21136;-76
2021/07/13 09:09:33;;;;;;;9.75;4.95;;;;;;;35.23;32.01;100080.59;1630100;88;21722;-77
2021/07/13 09:12:19;;;;;;;12.28;4.55;;;;;;;35.03;33.50;100083.94;1629804;88;21060;-77
2021/07/13 09:15:05;;;;;;;9.63;4.85;;;;;;;35.17;33.45;100088.30;1629910;88;21679;-76
2021/07/13 09:17:43;;;;;;;9.13;4.97;;;;;;;35.54;32.28;100087.13;1630036;88;21049;-77
2021/07/13 09:20:22;;;;;;;9.40;4.53;;;;;;;35.90;31.17;100085.62;1630174;88;21599;-77
2021/07/13 09:23:06;;;;;;;5.75;4.30;;;;;;;35.98;31.80;100078.47;1629877;88;21550;-77
2021/07/13 09:25:37;;;;;;;28.07;18.42;;;;;;;35.54;32.04;100076.17;1630137;88;21113;-77
2021/07/13 09:28:17;;;;;;;9.63;6.90;;;;;;;35.20;32.30;100078.31;1630070;88;21162;-78
2021/07/13 09:30:58;;;;;;;46.68;35.00;;;;;;;35.20;33.18;100069.23;1630245;88;21038;-78
2021/07/13 09:33:27;;;;;;;72.58;53.20;;;;;;;35.08;32.48;100069.89;1624149;88;21140;-78
2021/07/13 09:36:11;;;;;;;25.62;12.45;;;;;;;34.98;31.58;100064.07;1625607;87;21167;-78
2021/07/13 09:38:43;;;;;;;12.65;7.50;;;;;;;34.80;34.12;100066.69;1623700;86;22306;-78
2021/07/13 09:41:14;;;;;;;11.90;6.17;;;;;;;34.38;34.45;100067.01;1621614;88;21081;-78
2021/07/13 09:44:04;;;;;;;6.50;4.83;;;;;;;34.33;34.57;100068.72;1623383;88;21161;-77
2021/07/13 09:46:33;;;;;;;;;;;;;;;34.36;34.53;100070.48;1618820;88;21080;-81
2021/07/13 09:49:16;;;;;;;6.45;4.90;;;;;;;33.84;35.35;100063.99;1615845;88;21509;-78
2021/07/13 09:51:59;;;;;;;6.25;5.37;;;;;;;33.62;36.01;100072.94;1611927;88;21114;-76
2021/07/13 09:54:43;;;;;;;25.85;16.57;;;;;;;33.60;35.72;100067.67;1610315;88;21149;-76
2021/07/13 09:57:23;;;;;;;12.90;5.95;;;;;;;33.86;34.83;100071.45;1625715;88;21362;-77
2021/07/13 09:59:52;;;;;;;21.65;7.20;;;;;;;34.19;34.93;100065.17;1620650;86;21044;-78
2021/07/13 10:02:23;;;;;;;34.95;27.77;;;;;;;34.48;34.50;100072.85;1621588;86;21158;-77
2021/07/13 10:04:50;;;;;;;18.30;6.13;;;;;;;34.59;33.28;100070.52;1616495;88;21588;-78
2021/07/13 10:07:20;;;;;;;19.00;4.75;;;;;;;34.77;33.91;100065.23;1615439;88;21555;-79
2021/07/13 10:09:52;;;;;;;12.07;6.87;;;;;;;34.70;32.59;100074.52;1621375;88;21113;-77
2021/07/13 10:12:22;;;;;;;10.23;4.80;;;;;;;34.60;32.70;100074.92;1617714;88;21096;-77
2021/07/13 10:14:54;;;;;;;9.93;5.65;;;;;;;34.61;33.01;100072.55;1622416;88;21676;-77
2021/07/13 10:17:20;;;;;;;17.50;9.73;;;;;;;34.57;33.54;100076.73;1619300;88;21116;-76
2021/07/13 10:19:52;;;;;;;16.73;4.90;;;;;;;34.37;33.59;100079.01;1613786;88;21072;-76
2021/07/13 10:22:22;;;;;;;17.67;11.00;;;;;;;34.27;34.24;100078.59;1613154;88;21076;-77
2021/07/13 10:24:53;;;;;;;26.80;15.55;;;;;;;34.11;34.02;100077.14;1618439;88;21179;-77
2021/07/13 10:27:33;;;;;;;12.10;4.92;;;;;;;34.13;34.06;100079.67;1609301;88;21159;-77
2021/07/13 10:30:08;;;;;;;6.55;5.05;;;;;;;34.23;34.46;100084.16;1622331;88;21129;-77
2021/07/13 10:32:41;;;;;;;7.20;4.45;;;;;;;34.33;33.34;100079.66;1625811;87;21120;-78
2021/07/13 10:35:25;;;;;;;12.58;6.80;;;;;;;34.47;33.61;100079.92;1625660;88;21114;-77
2021/07/13 10:37:46;;;;;;;22.30;15.18;;;;;;;34.59;33.87;100071.89;1618574;88;21061;-77
2021/07/13 10:40:27;;;;;;;14.63;5.67;;;;;;;34.36;33.37;100077.31;1625151;88;21281;-76
2021/07/13 10:43:04;;;;;;;8.53;4.85;;;;;;;34.22;34.03;100081.97;1617862;88;21076;-78
2021/07/13 10:45:39;;;;;;;9.68;6.83;;;;;;;34.02;34.05;100072.39;1624537;87;21098;-77
2021/07/13 10:48:19;;;;;;;14.07;4.70;;;;;;;34.19;34.03;100085.66;1625811;88;21604;-76
2021/07/13 10:50:55;;;;;;;7.78;5.80;;;;;;;34.18;33.93;100085.34;1625822;88;21026;-76
2021/07/13 10:53:40;;;;;;;12.98;5.30;;;;;;;34.16;33.61;100081.97;1625902;88;21117;-77
2021/07/13 10:56:13;;;;;;;7.10;4.53;;;;;;;34.11;33.88;100079.05;1624932;87;21102;-77
2021/07/13 10:58:50;;;;;;;9.15;5.40;;;;;;;34.22;34.31;100075.67;1613479;88;21088;-81
2021/07/13 11:01:33;;;;;;;6.22;4.47;;;;;;;34.28;33.57;100072.09;1623360;88;21110;-81
2021/07/13 11:04:04;;;;;;;18.10;5.28;;;;;;;34.34;33.36;100076.68;1625130;88;22179;-82
2021/07/13 11:06:44;;;;;;;17.92;12.55;;;;;;;34.32;34.42;100076.05;1625823;88;22201;-82
2021/07/13 11:09:25;;;;;;;12.35;4.58;;;;;;;34.26;34.08;100072.30;1626229;88;21070;-84
2021/07/13 11:12:11;;;;;;;13.62;4.80;;;;;;;34.23;33.82;100074.59;1625564;88;21525;-82
2021/07/13 11:14:56;;;;;;;8.20;4.85;;;;;;;34.25;33.30;100073.86;1625951;88;21114;-81
2021/07/13 11:17:25;;;;;;;19.48;12.47;;;;;;;34.29;33.83;100071.02;1621939;88;21089;-81
2021/07/13 11:20:01;;;;;;;6.00;4.80;;;;;;;34.36;33.08;100070.48;1605274;88;21077;-80
2021/07/13 11:22:29;;;;;;;15.80;9.75;;;;;;;34.46;33.58;100077.72;1626312;88;21042;-79
2021/07/13 11:24:57;;;;;;;8.55;4.70;;;;;;;34.51;32.90;100072.11;1625870;88;21142;-80
2021/07/13 11:27:24;;;;;;;11.08;4.80;;;;;;;34.63;33.48;100080.02;1626247;88;21136;-80
2021/07/13 11:29:52;;;;;;;7.58;5.05;;;;;;;34.59;33.27;100086.93;1625959;88;21077;-82
2021/07/13 11:32:19;;;;;;;11.30;4.78;;;;;;;34.35;33.09;100077.02;1625804;88;21820;-81
2021/07/13 11:34:46;;;;;;;12.82;9.45;;;;;;;34.11;33.56;100076.31;1625949;88;21022;-79